sensor_id;sensor_type;location;lat;lon;timestamp;pressure;altitude;pressure_sealevel;temperature;humidity
62976;BME280;49071;0.000;0.000;2023-03-18T06:24:58;100504.34;;;16.71;32.71
62976;BME280;49071;0.000;0.000;2023-03-18T06:27:58;100515.50;;;16.76;32.76
62976;BME280;49071;0.000;0.000;2023-03-18T06:30:58;100523.31;;;16.78;32.73
62976;BME280;49071;0.000;0.000;2023-03-18T06:33:59;100518.13;;;16.76;32.46
62976;BME280;49071;0.000;0.000;2023-03-18T06:37:00;100517.31;;;16.74;32.54
62976;BME280;49071;0.000;0.000;2023-03-18T06:40:01;100521.75;;;16.72;32.53
62976;BME280;49071;0.000;0.000;2023-03-18T06:43:01;100525.22;;;16.72;32.79
62976;BME280;49071;0.000;0.000;2023-03-18T06:46:02;100525.44;;;16.68;32.54
62976;BME280;49071;0.000;0.000;2023-03-18T06:49:03;100535.13;;;16.66;32.70
62976;BME280;49071;0.000;0.000;2023-03-18T06:52:03;100538.66;;;16.65;32.70
62976;BME280;49071;0.000;0.000;2023-03-18T06:55:04;100538.84;;;16.60;32.63
62976;BME280;49071;0.000;0.000;2023-03-18T06:58:05;100535.34;;;16.61;32.67
62976;BME280;49071;0.000;0.000;2023-03-18T07:01:06;100535.69;;;16.72;32.98
62976;BME280;49071;0.000;0.000;2023-03-18T07:04:07;100541.34;;;16.84;32.74
62976;BME280;49071;0.000;0.000;2023-03-18T07:07:07;100544.66;;;17.08;32.85
62976;BME280;49071;0.000;0.000;2023-03-18T07:10:16;100546.16;;;17.32;32.69
62976;BME280;49071;0.000;0.000;2023-03-18T07:13:17;100549.78;;;17.49;32.53
62976;BME280;49071;0.000;0.000;2023-03-18T07:16:18;100555.94;;;17.66;31.96
62976;BME280;49071;0.000;0.000;2023-03-18T07:19:18;100555.16;;;17.83;32.00
62976;BME280;49071;0.000;0.000;2023-03-18T07:22:18;100545.31;;;18.06;32.20
62976;BME280;49071;0.000;0.000;2023-03-18T07:25:19;100552.50;;;18.20;31.86
62976;BME280;49071;0.000;0.000;2023-03-18T07:28:19;100552.13;;;18.27;31.62
62976;BME280;49071;0.000;0.000;2023-03-18T07:31:19;100554.75;;;18.27;31.45
62976;BME280;49071;0.000;0.000;2023-03-18T07:34:20;100549.50;;;18.27;31.60
62976;BME280;49071;0.000;0.000;2023-03-18T07:37:20;100553.66;;;18.31;31.54
62976;BME280;49071;0.000;0.000;2023-03-18T07:40:21;100552.97;;;18.28;31.82
62976;BME280;49071;0.000;0.000;2023-03-18T07:43:22;100558.75;;;18.17;31.84
62976;BME280;49071;0.000;0.000;2023-03-18T07:46:22;100558.53;;;18.22;32.16
62976;BME280;49071;0.000;0.000;2023-03-18T07:49:22;100557.53;;;18.24;31.97
62976;BME280;49071;0.000;0.000;2023-03-18T07:52:23;100556.13;;;18.34;32.00
62976;BME280;49071;0.000;0.000;2023-03-18T07:55:23;100560.00;;;18.45;32.01
62976;BME280;49071;0.000;0.000;2023-03-18T07:58:24;100554.88;;;18.59;31.82
62976;BME280;49071;0.000;0.000;2023-03-18T08:01:24;100561.25;;;18.72;31.71
62976;BME280;49071;0.000;0.000;2023-03-18T08:04:24;100564.19;;;18.83;31.53
62976;BME280;49071;0.000;0.000;2023-03-18T08:07:25;100564.00;;;18.86;31.41
62976;BME280;49071;0.000;0.000;2023-03-18T08:10:25;100574.50;;;18.86;31.60
62976;BME280;49071;0.000;0.000;2023-03-18T08:13:25;100568.25;;;18.89;31.55
62976;BME280;49071;0.000;0.000;2023-03-18T08:16:26;100572.13;;;18.82;31.47
62976;BME280;49071;0.000;0.000;2023-03-18T08:19:26;100575.53;;;18.67;31.92
62976;BME280;49071;0.000;0.000;2023-03-18T08:22:27;100573.59;;;18.70;31.74
62976;BME280;49071;0.000;0.000;2023-03-18T08:25:27;100581.00;;;18.62;32.24
62976;BME280;49071;0.000;0.000;2023-03-18T08:28:27;100573.53;;;18.54;32.08
62976;BME280;49071;0.000;0.000;2023-03-18T08:31:27;100572.34;;;18.42;32.26
62976;BME280;49071;0.000;0.000;2023-03-18T08:34:27;100579.16;;;18.29;32.08
62976;BME280;49071;0.000;0.000;2023-03-18T08:37:28;100576.38;;;17.79;31.93
62976;BME280;49071;0.000;0.000;2023-03-18T08:40:28;100569.59;;;17.92;31.94
62976;BME280;49071;0.000;0.000;2023-03-18T08:43:28;100575.47;;;17.97;31.92
62976;BME280;49071;0.000;0.000;2023-03-18T08:46:28;100578.19;;;17.96;32.16
62976;BME280;49071;0.000;0.000;2023-03-18T08:49:29;100571.22;;;17.94;31.85
62976;BME280;49071;0.000;0.000;2023-03-18T08:52:29;100574.91;;;17.90;31.96
62976;BME280;49071;0.000;0.000;2023-03-18T08:55:33;100573.22;;;17.70;32.22
62976;BME280;49071;0.000;0.000;2023-03-18T08:58:34;100569.66;;;17.71;32.45
62976;BME280;49071;0.000;0.000;2023-03-18T09:01:35;100577.69;;;17.68;32.26
62976;BME280;49071;0.000;0.000;2023-03-18T09:04:35;100583.13;;;17.64;32.28
62976;BME280;49071;0.000;0.000;2023-03-18T09:07:37;100590.31;;;17.60;32.52
62976;BME280;49071;0.000;0.000;2023-03-18T09:10:37;100602.72;;;17.57;32.43
62976;BME280;49071;0.000;0.000;2023-03-18T09:13:37;100602.41;;;17.25;32.48
62976;BME280;49071;0.000;0.000;2023-03-18T09:16:38;100605.03;;;17.25;32.73
62976;BME280;49071;0.000;0.000;2023-03-18T09:19:38;100603.31;;;17.24;33.60
62976;BME280;49071;0.000;0.000;2023-03-18T09:22:39;100608.69;;;17.21;33.55
62976;BME280;49071;0.000;0.000;2023-03-18T09:25:40;100615.00;;;17.17;33.72
62976;BME280;49071;0.000;0.000;2023-03-18T09:28:42;100610.81;;;17.13;33.96
62976;BME280;49071;0.000;0.000;2023-03-18T09:31:43;100616.28;;;17.08;33.74
62976;BME280;49071;0.000;0.000;2023-03-18T09:34:44;100610.50;;;17.00;33.62
62976;BME280;49071;0.000;0.000;2023-03-18T09:37:44;100621.81;;;17.00;33.90
62976;BME280;49071;0.000;0.000;2023-03-18T09:40:58;100620.09;;;17.01;33.94
62976;BME280;49071;0.000;0.000;2023-03-18T09:44:15;100620.59;;;17.09;33.87
62976;BME280;49071;0.000;0.000;2023-03-18T09:50:41;100612.97;;;17.23;33.76
62976;BME280;49071;0.000;0.000;2023-03-18T09:54:17;100610.19;;;17.27;33.45
62976;BME280;49071;0.000;0.000;2023-03-18T09:57:16;100620.91;;;17.41;33.38
62976;BME280;49071;0.000;0.000;2023-03-18T10:00:22;100620.28;;;17.55;33.25
62976;BME280;49071;0.000;0.000;2023-03-18T10:06:24;100615.22;;;17.89;33.33
62976;BME280;49071;0.000;0.000;2023-03-18T10:09:28;100622.34;;;18.05;32.84
62976;BME280;49071;0.000;0.000;2023-03-18T10:12:33;100614.81;;;18.16;33.07
62976;BME280;49071;0.000;0.000;2023-03-18T10:15:48;100620.94;;;18.34;32.63
62976;BME280;49071;0.000;0.000;2023-03-18T10:18:50;100614.16;;;18.47;32.50
62976;BME280;49071;0.000;0.000;2023-03-18T10:25:23;100621.22;;;18.81;32.17
62976;BME280;49071;0.000;0.000;2023-03-18T10:38:34;100619.19;;;19.04;32.01
62976;BME280;49071;0.000;0.000;2023-03-18T10:41:36;100625.34;;;19.03;32.30
62976;BME280;49071;0.000;0.000;2023-03-18T10:44:37;100627.28;;;18.99;32.33
62976;BME280;49071;0.000;0.000;2023-03-18T10:47:40;100624.06;;;18.94;32.42
62976;BME280;49071;0.000;0.000;2023-03-18T10:51:08;100625.75;;;18.95;32.62
62976;BME280;49071;0.000;0.000;2023-03-18T10:57:23;100651.81;;;18.82;32.49
62976;BME280;49071;0.000;0.000;2023-03-18T11:00:27;100652.91;;;18.78;32.64
62976;BME280;49071;0.000;0.000;2023-03-18T11:06:34;100647.31;;;18.67;33.07
62976;BME280;49071;0.000;0.000;2023-03-18T11:09:38;100642.41;;;18.59;32.85
62976;BME280;49071;0.000;0.000;2023-03-18T11:12:41;100650.84;;;18.49;32.89
62976;BME280;49071;0.000;0.000;2023-03-18T11:15:43;100643.81;;;18.49;33.18
62976;BME280;49071;0.000;0.000;2023-03-18T11:18:44;100645.44;;;18.52;33.02
62976;BME280;49071;0.000;0.000;2023-03-18T11:21:45;100638.09;;;18.58;33.33
62976;BME280;49071;0.000;0.000;2023-03-18T11:24:46;100631.69;;;18.64;33.02
62976;BME280;49071;0.000;0.000;2023-03-18T11:28:03;100629.50;;;18.74;32.92
62976;BME280;49071;0.000;0.000;2023-03-18T11:31:04;100633.34;;;18.84;32.57
62976;BME280;49071;0.000;0.000;2023-03-18T11:34:06;100622.59;;;18.88;32.86
62976;BME280;49071;0.000;0.000;2023-03-18T11:37:08;100621.88;;;19.02;32.37
62976;BME280;49071;0.000;0.000;2023-03-18T11:43:20;100625.31;;;19.20;32.22
62976;BME280;49071;0.000;0.000;2023-03-18T11:46:21;100627.03;;;19.21;32.18
62976;BME280;49071;0.000;0.000;2023-03-18T11:49:23;100627.94;;;19.20;32.21
62976;BME280;49071;0.000;0.000;2023-03-18T11:52:42;100622.19;;;19.14;32.16
62976;BME280;49071;0.000;0.000;2023-03-18T11:59:11;100625.34;;;19.03;32.25
62976;BME280;49071;0.000;0.000;2023-03-18T12:18:35;100637.56;;;18.69;32.93
62976;BME280;49071;0.000;0.000;2023-03-18T12:25:22;100633.63;;;18.60;33.04
62976;BME280;49071;0.000;0.000;2023-03-18T12:28:32;100626.91;;;18.55;33.20
62976;BME280;49071;0.000;0.000;2023-03-18T12:34:48;100625.81;;;18.59;32.96
62976;BME280;49071;0.000;0.000;2023-03-18T12:38:03;100629.69;;;18.69;32.89
62976;BME280;49071;0.000;0.000;2023-03-18T12:42:08;100629.34;;;18.77;33.08
62976;BME280;49071;0.000;0.000;2023-03-18T12:47:43;100621.03;;;19.02;32.58
62976;BME280;49071;0.000;0.000;2023-03-18T12:50:48;100629.97;;;19.15;32.39
62976;BME280;49071;0.000;0.000;2023-03-18T12:53:52;100636.38;;;19.27;32.45
62976;BME280;49071;0.000;0.000;2023-03-18T12:56:55;100633.66;;;19.28;32.06
62976;BME280;49071;0.000;0.000;2023-03-18T12:59:59;100630.09;;;19.29;32.36
62976;BME280;49071;0.000;0.000;2023-03-18T13:09:44;100617.78;;;19.14;32.61
62976;BME280;49071;0.000;0.000;2023-03-18T13:12:50;100624.28;;;19.07;32.65
62976;BME280;49071;0.000;0.000;2023-03-18T13:15:53;100621.88;;;19.02;32.39
62976;BME280;49071;0.000;0.000;2023-03-18T13:18:55;100619.50;;;18.98;32.75
62976;BME280;49071;0.000;0.000;2023-03-18T13:22:01;100613.63;;;18.93;32.45
62976;BME280;49071;0.000;0.000;2023-03-18T13:28:38;100608.84;;;18.83;32.69
62976;BME280;49071;0.000;0.000;2023-03-18T13:34:55;100616.47;;;18.71;32.65
62976;BME280;49071;0.000;0.000;2023-03-18T13:38:10;100606.13;;;18.68;32.88
62976;BME280;49071;0.000;0.000;2023-03-18T13:44:42;100606.66;;;18.57;32.89
62976;BME280;49071;0.000;0.000;2023-03-18T13:47:44;100599.94;;;18.51;33.06
62976;BME280;49071;0.000;0.000;2023-03-18T13:50:45;100604.50;;;18.48;33.50
62976;BME280;49071;0.000;0.000;2023-03-18T13:53:46;100596.47;;;18.51;33.28
62976;BME280;49071;0.000;0.000;2023-03-18T13:56:51;100597.25;;;18.53;33.54
62976;BME280;49071;0.000;0.000;2023-03-18T14:00:27;100602.66;;;18.67;33.34
62976;BME280;49071;0.000;0.000;2023-03-18T14:03:28;100601.19;;;18.79;33.21
62976;BME280;49071;0.000;0.000;2023-03-18T14:09:38;100596.59;;;19.00;32.98
62976;BME280;49071;0.000;0.000;2023-03-18T14:12:45;100596.81;;;19.13;33.21
62976;BME280;49071;0.000;0.000;2023-03-18T14:15:49;100590.22;;;19.21;33.08
62976;BME280;49071;0.000;0.000;2023-03-18T14:22:06;100592.59;;;19.26;33.14
62976;BME280;49071;0.000;0.000;2023-03-18T14:28:15;100591.84;;;19.24;32.94
62976;BME280;49071;0.000;0.000;2023-03-18T14:31:55;100586.75;;;19.21;33.21
62976;BME280;49071;0.000;0.000;2023-03-18T14:34:55;100584.97;;;19.21;33.32
62976;BME280;49071;0.000;0.000;2023-03-18T14:38:10;100577.41;;;19.15;33.30
62976;BME280;49071;0.000;0.000;2023-03-18T14:41:13;100581.88;;;19.13;33.47
62976;BME280;49071;0.000;0.000;2023-03-18T14:44:18;100584.75;;;19.08;33.60
62976;BME280;49071;0.000;0.000;2023-03-18T14:50:40;100581.69;;;19.00;33.63
62976;BME280;49071;0.000;0.000;2023-03-18T14:53:43;100574.97;;;18.95;33.65
62976;BME280;49071;0.000;0.000;2023-03-18T14:56:51;100577.59;;;18.95;33.58
62976;BME280;49071;0.000;0.000;2023-03-18T14:59:52;100575.22;;;18.90;33.66
62976;BME280;49071;0.000;0.000;2023-03-18T15:03:06;100571.19;;;18.83;33.72
62976;BME280;49071;0.000;0.000;2023-03-18T15:06:07;100577.47;;;18.80;33.90
62976;BME280;49071;0.000;0.000;2023-03-18T15:09:08;100576.84;;;18.75;34.00
62976;BME280;49071;0.000;0.000;2023-03-18T15:12:16;100582.38;;;18.69;33.92
62976;BME280;49071;0.000;0.000;2023-03-18T15:15:16;100583.72;;;18.60;34.38
62976;BME280;49071;0.000;0.000;2023-03-18T15:18:19;100585.88;;;18.52;34.52
62976;BME280;49071;0.000;0.000;2023-03-18T15:21:27;100580.06;;;18.46;34.31
62976;BME280;49071;0.000;0.000;2023-03-18T15:24:29;100594.16;;;18.45;34.74
62976;BME280;49071;0.000;0.000;2023-03-18T15:27:30;100584.88;;;18.37;34.95
62976;BME280;49071;0.000;0.000;2023-03-18T15:30:31;100593.00;;;18.33;35.06
62976;BME280;49071;0.000;0.000;2023-03-18T15:33:34;100592.19;;;18.31;35.13
62976;BME280;49071;0.000;0.000;2023-03-18T15:36:39;100596.81;;;18.26;35.14
62976;BME280;49071;0.000;0.000;2023-03-18T15:39:39;100600.53;;;18.22;35.43
62976;BME280;49071;0.000;0.000;2023-03-18T15:42:42;100593.72;;;18.17;35.35
62976;BME280;49071;0.000;0.000;2023-03-18T15:45:43;100598.00;;;18.20;35.42
62976;BME280;49071;0.000;0.000;2023-03-18T15:48:45;100596.13;;;18.22;35.26
62976;BME280;49071;0.000;0.000;2023-03-18T15:51:56;100602.00;;;18.27;35.27
62976;BME280;49071;0.000;0.000;2023-03-18T15:54:57;100595.63;;;18.33;35.36
62976;BME280;49071;0.000;0.000;2023-03-18T15:57:57;100596.88;;;18.43;35.06
62976;BME280;49071;0.000;0.000;2023-03-18T16:00:58;100598.84;;;18.55;35.17
62976;BME280;49071;0.000;0.000;2023-03-18T16:03:58;100604.66;;;18.62;35.10
62976;BME280;49071;0.000;0.000;2023-03-18T16:06:59;100594.31;;;18.76;34.78
62976;BME280;49071;0.000;0.000;2023-03-18T16:09:59;100598.78;;;18.92;34.85
62976;BME280;49071;0.000;0.000;2023-03-18T16:13:00;100606.03;;;19.04;34.74
62976;BME280;49071;0.000;0.000;2023-03-18T16:16:01;100618.00;;;19.09;34.42
62976;BME280;49071;0.000;0.000;2023-03-18T16:19:02;100619.25;;;19.02;34.58
62976;BME280;49071;0.000;0.000;2023-03-18T16:22:05;100627.97;;;19.03;34.91
62976;BME280;49071;0.000;0.000;2023-03-18T16:25:06;100625.19;;;19.06;34.68
62976;BME280;49071;0.000;0.000;2023-03-18T16:28:08;100624.75;;;18.98;34.93
62976;BME280;49071;0.000;0.000;2023-03-18T16:31:13;100630.75;;;19.00;34.81
62976;BME280;49071;0.000;0.000;2023-03-18T16:34:15;100639.69;;;18.97;34.60
62976;BME280;49071;0.000;0.000;2023-03-18T16:37:20;100642.47;;;18.94;34.94
62976;BME280;49071;0.000;0.000;2023-03-18T16:40:23;100639.31;;;18.87;34.70
62976;BME280;49071;0.000;0.000;2023-03-18T16:43:27;100645.66;;;18.83;34.97
62976;BME280;49071;0.000;0.000;2023-03-18T16:46:27;100650.69;;;18.69;35.00
62976;BME280;49071;0.000;0.000;2023-03-18T16:49:28;100658.81;;;18.64;35.30
62976;BME280;49071;0.000;0.000;2023-03-18T16:52:30;100658.28;;;18.58;35.24
62976;BME280;49071;0.000;0.000;2023-03-18T16:55:31;100657.81;;;18.50;35.42
62976;BME280;49071;0.000;0.000;2023-03-18T16:58:32;100656.31;;;18.44;35.41
62976;BME280;49071;0.000;0.000;2023-03-18T17:01:33;100663.56;;;18.39;35.61
62976;BME280;49071;0.000;0.000;2023-03-18T17:04:34;100655.91;;;18.34;35.50
62976;BME280;49071;0.000;0.000;2023-03-18T17:07:34;100665.81;;;18.29;35.43
62976;BME280;49071;0.000;0.000;2023-03-18T17:10:35;100663.47;;;18.23;35.56
62976;BME280;49071;0.000;0.000;2023-03-18T17:13:36;100666.25;;;18.20;35.30
62976;BME280;49071;0.000;0.000;2023-03-18T17:16:37;100676.81;;;18.18;35.60
62976;BME280;49071;0.000;0.000;2023-03-18T17:19:38;100673.13;;;18.23;35.29
62976;BME280;49071;0.000;0.000;2023-03-18T17:22:39;100667.41;;;18.32;35.50
62976;BME280;49071;0.000;0.000;2023-03-18T17:25:39;100670.44;;;18.41;35.15
62976;BME280;49071;0.000;0.000;2023-03-18T17:28:41;100671.66;;;18.53;35.07
62976;BME280;49071;0.000;0.000;2023-03-18T17:31:42;100679.13;;;18.61;34.82
62976;BME280;49071;0.000;0.000;2023-03-18T17:34:43;100673.31;;;18.73;34.60
62976;BME280;49071;0.000;0.000;2023-03-18T17:37:45;100677.94;;;18.85;34.83
62976;BME280;49071;0.000;0.000;2023-03-18T17:40:46;100675.63;;;18.97;34.23
62976;BME280;49071;0.000;0.000;2023-03-18T17:43:47;100683.19;;;19.03;34.50
62976;BME280;49071;0.000;0.000;2023-03-18T17:46:47;100681.41;;;19.03;34.65
62976;BME280;49071;0.000;0.000;2023-03-18T17:49:48;100678.88;;;19.02;34.37
62976;BME280;49071;0.000;0.000;2023-03-18T17:52:49;100683.13;;;19.04;34.90
62976;BME280;49071;0.000;0.000;2023-03-18T17:55:50;100685.66;;;19.06;34.91
62976;BME280;49071;0.000;0.000;2023-03-18T17:58:52;100683.97;;;19.05;35.03
62976;BME280;49071;0.000;0.000;2023-03-18T18:01:52;100681.59;;;19.00;35.00
62976;BME280;49071;0.000;0.000;2023-03-18T18:04:53;100683.44;;;18.98;35.02
62976;BME280;49071;0.000;0.000;2023-03-18T18:07:53;100680.91;;;18.97;35.15
62976;BME280;49071;0.000;0.000;2023-03-18T18:10:55;100677.72;;;18.90;35.28
62976;BME280;49071;0.000;0.000;2023-03-18T18:14:00;100684.88;;;18.86;35.09
62976;BME280;49071;0.000;0.000;2023-03-18T18:17:04;100693.00;;;18.82;35.35
62976;BME280;49071;0.000;0.000;2023-03-18T18:20:14;100694.94;;;18.78;35.31
62976;BME280;49071;0.000;0.000;2023-03-18T18:23:15;100693.47;;;18.73;35.67
62976;BME280;49071;0.000;0.000;2023-03-18T18:26:21;100690.34;;;18.64;35.42
62976;BME280;49071;0.000;0.000;2023-03-18T18:29:23;100691.47;;;18.59;35.38
62976;BME280;49071;0.000;0.000;2023-03-18T18:32:23;100695.13;;;18.56;35.98
62976;BME280;49071;0.000;0.000;2023-03-18T18:35:25;100694.59;;;18.50;36.02
62976;BME280;49071;0.000;0.000;2023-03-18T18:38:26;100697.34;;;18.47;35.92
62976;BME280;49071;0.000;0.000;2023-03-18T18:41:27;100704.53;;;18.43;36.11
62976;BME280;49071;0.000;0.000;2023-03-18T18:44:27;100705.59;;;18.39;35.94
62976;BME280;49071;0.000;0.000;2023-03-18T18:47:27;100705.81;;;18.34;35.99
62976;BME280;49071;0.000;0.000;2023-03-18T18:50:29;100691.97;;;18.31;36.26
62976;BME280;49071;0.000;0.000;2023-03-18T18:53:34;100703.56;;;18.27;36.19
62976;BME280;49071;0.000;0.000;2023-03-18T18:56:36;100705.53;;;18.22;36.43
62976;BME280;49071;0.000;0.000;2023-03-18T18:59:36;100694.97;;;18.23;36.54
62976;BME280;49071;0.000;0.000;2023-03-18T19:02:36;100703.84;;;18.21;36.42
62976;BME280;49071;0.000;0.000;2023-03-18T19:05:42;100698.75;;;18.17;36.53
62976;BME280;49071;0.000;0.000;2023-03-18T19:08:43;100707.69;;;18.13;36.44
62976;BME280;49071;0.000;0.000;2023-03-18T19:11:45;100704.13;;;18.14;36.77
62976;BME280;49071;0.000;0.000;2023-03-18T19:14:45;100706.00;;;18.12;36.64
62976;BME280;49071;0.000;0.000;2023-03-18T19:17:46;100700.81;;;18.11;36.82
62976;BME280;49071;0.000;0.000;2023-03-18T19:20:46;100705.34;;;18.07;36.68
62976;BME280;49071;0.000;0.000;2023-03-18T19:23:47;100705.56;;;18.03;36.94
62976;BME280;49071;0.000;0.000;2023-03-18T19:26:47;100708.25;;;18.01;36.80
62976;BME280;49071;0.000;0.000;2023-03-18T19:29:48;100698.03;;;17.95;36.99
62976;BME280;49071;0.000;0.000;2023-03-18T19:32:48;100701.66;;;17.92;36.77
62976;BME280;49071;0.000;0.000;2023-03-18T19:35:48;100706.13;;;17.90;36.92
62976;BME280;49071;0.000;0.000;2023-03-18T19:38:49;100707.63;;;17.96;36.98
62976;BME280;49071;0.000;0.000;2023-03-18T19:41:50;100708.38;;;17.98;37.09
62976;BME280;49071;0.000;0.000;2023-03-18T19:44:51;100707.19;;;18.05;36.82
62976;BME280;49071;0.000;0.000;2023-03-18T19:47:51;100715.34;;;18.18;36.71
62976;BME280;49071;0.000;0.000;2023-03-18T19:50:52;100714.81;;;18.29;36.72
62976;BME280;49071;0.000;0.000;2023-03-18T19:53:52;100714.41;;;18.38;36.71
62976;BME280;49071;0.000;0.000;2023-03-18T19:56:52;100708.63;;;18.49;36.61
62976;BME280;49071;0.000;0.000;2023-03-18T19:59:54;100713.44;;;18.58;36.52
62976;BME280;49071;0.000;0.000;2023-03-18T20:02:55;100709.44;;;18.68;36.12
62976;BME280;49071;0.000;0.000;2023-03-18T20:05:57;100717.50;;;18.82;36.06
62976;BME280;49071;0.000;0.000;2023-03-18T20:08:57;100721.22;;;18.96;35.81
62976;BME280;49071;0.000;0.000;2023-03-18T20:11:57;100722.72;;;19.01;35.90
62976;BME280;49071;0.000;0.000;2023-03-18T20:15:03;100713.03;;;19.02;35.73
62976;BME280;49071;0.000;0.000;2023-03-18T20:18:04;100710.25;;;19.05;36.11
62976;BME280;49071;0.000;0.000;2023-03-18T20:21:05;100722.47;;;19.06;35.80
62976;BME280;49071;0.000;0.000;2023-03-18T20:24:07;100710.09;;;19.08;35.81
62976;BME280;49071;0.000;0.000;2023-03-18T20:27:09;100716.47;;;19.04;35.83
62976;BME280;49071;0.000;0.000;2023-03-18T20:30:14;100722.00;;;18.98;36.17
62976;BME280;49071;0.000;0.000;2023-03-18T20:33:19;100716.81;;;18.96;36.13
62976;BME280;49071;0.000;0.000;2023-03-18T20:36:21;100717.06;;;18.92;36.35
62976;BME280;49071;0.000;0.000;2023-03-18T20:39:21;100720.69;;;18.89;36.07
62976;BME280;49071;0.000;0.000;2023-03-18T20:42:21;100719.13;;;18.85;36.25
62976;BME280;49071;0.000;0.000;2023-03-18T20:45:22;100727.13;;;18.83;36.60
62976;BME280;49071;0.000;0.000;2023-03-18T20:48:22;100717.75;;;18.78;36.61
62976;BME280;49071;0.000;0.000;2023-03-18T20:51:27;100722.16;;;18.77;36.61
62976;BME280;49071;0.000;0.000;2023-03-18T20:54:31;100728.56;;;18.72;36.67
62976;BME280;49071;0.000;0.000;2023-03-18T20:57:31;100726.13;;;18.67;36.72
62976;BME280;49071;0.000;0.000;2023-03-18T21:00:31;100730.00;;;18.60;36.86
62976;BME280;49071;0.000;0.000;2023-03-18T21:03:32;100733.75;;;18.54;36.92
62976;BME280;49071;0.000;0.000;2023-03-18T21:06:34;100733.91;;;18.51;36.70
62976;BME280;49071;0.000;0.000;2023-03-18T21:09:34;100735.72;;;18.49;36.98
62976;BME280;49071;0.000;0.000;2023-03-18T21:12:36;100732.41;;;18.46;37.07
62976;BME280;49071;0.000;0.000;2023-03-18T21:15:36;100735.97;;;18.45;36.84
62976;BME280;49071;0.000;0.000;2023-03-18T21:18:36;100732.63;;;18.41;37.05
62976;BME280;49071;0.000;0.000;2023-03-18T21:21:37;100735.41;;;18.38;37.46
62976;BME280;49071;0.000;0.000;2023-03-18T21:24:37;100735.53;;;18.35;37.49
62976;BME280;49071;0.000;0.000;2023-03-18T21:27:38;100739.16;;;18.32;37.58
62976;BME280;49071;0.000;0.000;2023-03-18T21:30:38;100746.34;;;18.29;37.26
62976;BME280;49071;0.000;0.000;2023-03-18T21:33:38;100743.13;;;18.22;37.33
62976;BME280;49071;0.000;0.000;2023-03-18T21:36:38;100741.69;;;18.16;37.44
62976;BME280;49071;0.000;0.000;2023-03-18T21:39:38;100741.81;;;18.13;37.53
62976;BME280;49071;0.000;0.000;2023-03-18T21:42:39;100741.88;;;18.12;38.03
62976;BME280;49071;0.000;0.000;2023-03-18T21:45:40;100738.25;;;18.14;37.89
62976;BME280;49071;0.000;0.000;2023-03-18T21:48:40;100736.56;;;18.13;37.67
62976;BME280;49071;0.000;0.000;2023-03-18T21:51:40;100736.94;;;18.06;37.88
62976;BME280;49071;0.000;0.000;2023-03-18T21:54:42;100743.22;;;18.02;38.23
62976;BME280;49071;0.000;0.000;2023-03-18T21:57:42;100741.53;;;18.01;37.93
62976;BME280;49071;0.000;0.000;2023-03-18T22:00:44;100739.97;;;17.97;38.18
62976;BME280;49071;0.000;0.000;2023-03-18T22:03:46;100738.41;;;17.92;37.84
62976;BME280;49071;0.000;0.000;2023-03-18T22:06:46;100742.00;;;17.90;38.08
62976;BME280;49071;0.000;0.000;2023-03-18T22:09:47;100730.72;;;17.88;38.34
62976;BME280;49071;0.000;0.000;2023-03-18T22:12:47;100732.63;;;17.84;38.33
62976;BME280;49071;0.000;0.000;2023-03-18T22:15:48;100738.81;;;17.83;38.17
62976;BME280;49071;0.000;0.000;2023-03-18T22:18:48;100736.31;;;17.80;38.14
62976;BME280;49071;0.000;0.000;2023-03-18T22:21:49;100735.53;;;17.78;38.40
62976;BME280;49071;0.000;0.000;2023-03-18T22:24:49;100739.13;;;17.76;38.66
62976;BME280;49071;0.000;0.000;2023-03-18T22:27:50;100739.19;;;17.74;38.63
62976;BME280;49071;0.000;0.000;2023-03-18T22:30:50;100729.69;;;17.71;38.33
62976;BME280;49071;0.000;0.000;2023-03-18T22:33:51;100734.16;;;17.69;38.47
62976;BME280;49071;0.000;0.000;2023-03-18T22:36:52;100734.22;;;17.68;38.37
62976;BME280;49071;0.000;0.000;2023-03-18T22:39:52;100729.97;;;17.65;38.41
62976;BME280;49071;0.000;0.000;2023-03-18T22:42:54;100728.25;;;17.64;38.68
62976;BME280;49071;0.000;0.000;2023-03-18T22:45:55;100730.03;;;17.64;39.00
62976;BME280;49071;0.000;0.000;2023-03-18T22:48:55;100723.13;;;17.61;38.71
62976;BME280;49071;0.000;0.000;2023-03-18T22:51:55;100727.63;;;17.59;38.67
62976;BME280;49071;0.000;0.000;2023-03-18T22:54:57;100725.03;;;17.58;38.62
62976;BME280;49071;0.000;0.000;2023-03-18T22:57:58;100737.41;;;17.56;38.87
62976;BME280;49071;0.000;0.000;2023-03-18T23:00:58;100742.63;;;17.56;39.04
62976;BME280;49071;0.000;0.000;2023-03-18T23:03:59;100738.47;;;17.52;39.12
